createdAt,value
2023-05-17T00:00:01.775Z,120.82
2023-05-17T00:01:01.832Z,120.87
2023-05-17T00:02:00.883Z,120.76
2023-05-17T00:03:00.968Z,120.33
2023-05-17T00:04:02.032Z,121.26
2023-05-17T00:05:02.059Z,120.67
2023-05-17T00:06:02.094Z,121.13
2023-05-17T00:07:02.145Z,121.94
2023-05-17T00:08:01.165Z,120.89
2023-05-17T00:09:02.220Z,122.06
2023-05-17T00:10:01.356Z,122.53
2023-05-17T00:11:02.325Z,121.63
2023-05-17T00:12:02.387Z,120.02
2023-05-17T00:13:01.421Z,120.63
2023-05-17T00:14:01.474Z,118.83
2023-05-17T00:15:01.524Z,120.76
2023-05-17T00:16:02.584Z,119.55
2023-05-17T00:17:01.628Z,120.58
2023-05-17T00:18:01.715Z,121.12
2023-05-17T00:19:02.012Z,119.30
2023-05-17T00:20:02.782Z,119.64
2023-05-17T00:21:01.845Z,115.50
2023-05-17T00:22:01.845Z,120.27
2023-05-17T00:23:01.878Z,116.97
2023-05-17T00:24:01.907Z,121.66
2023-05-17T00:25:02.901Z,119.74
2023-05-17T00:26:01.958Z,120.23
2023-05-17T00:27:02.956Z,120.16
2023-05-17T00:28:01.946Z,117.89
2023-05-17T00:29:01.979Z,118.82
2023-05-17T00:30:02.000Z,120.50
2023-05-17T00:31:03.019Z,120.50
2023-05-17T00:32:02.032Z,117.09
2023-05-17T00:33:02.119Z,118.26
2023-05-17T00:34:02.121Z,117.87
2023-05-17T00:35:03.169Z,119.28
2023-05-17T00:36:02.189Z,118.29
2023-05-17T00:37:02.239Z,119.03
2023-05-17T00:38:03.290Z,119.89
2023-05-17T00:39:03.358Z,116.46
2023-05-17T00:40:03.415Z,118.90
2023-05-17T00:41:02.433Z,116.85
2023-05-17T00:42:02.523Z,114.87
2023-05-17T00:43:02.559Z,119.17
2023-05-17T00:44:03.597Z,116.79
2023-05-17T00:45:03.640Z,118.51
2023-05-17T00:46:03.691Z,118.11
2023-05-17T00:47:03.715Z,118.04
2023-05-17T00:48:02.898Z,117.90
2023-05-17T00:49:02.822Z,119.35
2023-05-17T00:50:03.974Z,116.10
2023-05-17T00:51:03.899Z,116.39
2023-05-17T00:52:03.952Z,114.26
2023-05-17T00:53:03.990Z,116.24
2023-05-17T00:54:03.051Z,116.52
2023-05-17T00:55:04.074Z,119.67
2023-05-17T00:56:03.130Z,115.12
2023-05-17T00:57:03.274Z,115.47
2023-05-17T00:58:03.336Z,117.16
2023-05-17T00:59:03.260Z,118.71
2023-05-17T01:00:04.310Z,115.98
2023-05-17T01:01:03.346Z,115.43
2023-05-17T01:02:03.429Z,114.79
2023-05-17T01:03:03.513Z,114.39
2023-05-17T01:04:04.724Z,113.94
2023-05-17T01:05:03.539Z,115.78
2023-05-17T01:06:03.577Z,114.17
2023-05-17T01:07:03.655Z,116.99
2023-05-17T01:08:04.735Z,113.30
2023-05-17T01:09:03.743Z,115.19
2023-05-17T01:10:03.786Z,117.11
2023-05-17T01:11:03.811Z,115.08
2023-05-17T01:12:03.875Z,117.48
2023-05-17T01:13:04.911Z,117.37
2023-05-17T01:14:04.050Z,115.68
2023-05-17T01:15:04.999Z,116.35
2023-05-17T01:16:05.049Z,115.59
2023-05-17T01:17:05.075Z,115.70
2023-05-17T01:18:05.206Z,115.54
2023-05-17T01:19:05.298Z,115.10
2023-05-17T01:20:05.327Z,115.92
2023-05-17T01:21:04.283Z,113.80
2023-05-17T01:22:05.323Z,113.75
2023-05-17T01:23:05.384Z,115.10
2023-05-17T01:24:05.442Z,116.19
2023-05-17T01:25:04.480Z,112.04
2023-05-17T01:26:04.528Z,114.62
2023-05-17T01:27:04.558Z,114.63
2023-05-17T01:28:05.605Z,114.08
2023-05-17T01:29:04.659Z,112.22
2023-05-17T01:30:05.784Z,113.45
2023-05-17T01:31:04.760Z,114.14
2023-05-17T01:32:05.776Z,115.65
2023-05-17T01:33:06.009Z,115.00
2023-05-17T01:34:05.873Z,113.59
2023-05-17T01:35:04.901Z,114.72
2023-05-17T01:36:04.954Z,114.12
2023-05-17T01:37:06.003Z,112.83
2023-05-17T01:38:06.038Z,114.56
2023-05-17T01:39:06.150Z,112.93
2023-05-17T01:40:05.133Z,114.61
2023-05-17T01:41:05.167Z,114.06
2023-05-17T01:42:05.240Z,113.13
2023-05-17T01:43:05.261Z,113.13
2023-05-17T01:44:06.345Z,114.04
2023-05-17T01:45:05.365Z,113.24
2023-05-17T01:46:05.526Z,113.88
2023-05-17T01:47:06.438Z,114.97
2023-05-17T01:48:06.652Z,112.48
2023-05-17T01:49:06.526Z,112.07
2023-05-17T01:50:06.545Z,112.72
2023-05-17T01:51:06.596Z,112.44
2023-05-17T01:52:05.628Z,114.17
2023-05-17T01:53:05.655Z,112.50
2023-05-17T01:54:05.717Z,108.47
2023-05-17T01:55:06.728Z,112.19
2023-05-17T01:56:06.071Z,112.95
2023-05-17T01:57:05.820Z,112.55
2023-05-17T01:58:06.861Z,111.79
2023-05-17T01:59:05.876Z,112.08
2023-05-17T02:00:05.912Z,111.15
2023-05-17T02:01:05.940Z,113.23
2023-05-17T02:02:06.085Z,110.76
2023-05-17T02:03:07.043Z,113.23
2023-05-17T02:04:07.232Z,109.76
2023-05-17T02:05:07.259Z,108.47
2023-05-17T02:06:06.164Z,110.80
2023-05-17T02:07:06.201Z,109.96
2023-05-17T02:08:07.249Z,111.77
2023-05-17T02:09:06.310Z,109.53
2023-05-17T02:10:07.343Z,109.57
2023-05-17T02:11:07.360Z,111.32
2023-05-17T02:12:07.408Z,112.29
2023-05-17T02:13:07.469Z,110.41
2023-05-17T02:14:06.494Z,111.78
2023-05-17T02:15:06.546Z,112.26
2023-05-17T02:16:07.581Z,106.79
2023-05-17T02:17:06.625Z,108.92
2023-05-17T02:18:07.072Z,110.65
2023-05-17T02:19:06.743Z,111.85
2023-05-17T02:20:07.729Z,111.49
2023-05-17T02:21:06.739Z,108.70
2023-05-17T02:22:07.773Z,111.30
2023-05-17T02:23:07.833Z,110.21
2023-05-17T02:24:07.862Z,108.16
2023-05-17T02:25:07.912Z,110.49
2023-05-17T02:26:07.944Z,108.52
2023-05-17T02:27:07.975Z,109.15
2023-05-17T02:28:07.985Z,111.42
2023-05-17T02:29:07.033Z,109.99
2023-05-17T02:30:07.081Z,108.45
2023-05-17T02:31:08.079Z,109.97
2023-05-17T02:32:08.122Z,111.30
2023-05-17T02:33:07.232Z,111.21
2023-05-17T02:34:07.289Z,112.01
2023-05-17T02:35:07.216Z,109.64
2023-05-17T02:36:08.243Z,111.10
2023-05-17T02:37:07.268Z,110.03
2023-05-17T02:38:08.284Z,110.55
2023-05-17T02:39:07.317Z,109.11
2023-05-17T02:40:07.358Z,111.55
2023-05-17T02:41:07.385Z,110.45
2023-05-17T02:42:07.431Z,110.35
2023-05-17T02:43:08.456Z,111.21
2023-05-17T02:44:08.488Z,109.62
2023-05-17T02:45:08.522Z,111.22
2023-05-17T02:46:08.551Z,111.55
2023-05-17T02:47:07.716Z,112.64
2023-05-17T02:48:07.673Z,112.73
2023-05-17T02:49:08.665Z,112.34
2023-05-17T02:50:07.782Z,112.28
2023-05-17T02:51:07.694Z,111.74
2023-05-17T02:52:08.708Z,113.05
2023-05-17T02:53:07.738Z,112.17
2023-05-17T02:54:07.779Z,111.21
2023-05-17T02:55:08.834Z,112.37
2023-05-17T02:56:08.878Z,112.88
2023-05-17T02:57:07.896Z,114.50
2023-05-17T02:58:08.919Z,112.02
2023-05-17T02:59:08.957Z,112.07
2023-05-17T03:00:08.989Z,112.94
2023-05-17T03:01:09.026Z,111.96
2023-05-17T03:02:08.051Z,113.33
2023-05-17T03:03:08.240Z,112.19
2023-05-17T03:04:08.145Z,112.32
2023-05-17T03:05:09.119Z,114.30
2023-05-17T03:06:09.281Z,113.77
2023-05-17T03:07:08.142Z,113.97
2023-05-17T03:08:08.165Z,111.20
2023-05-17T03:09:08.196Z,112.49
2023-05-17T03:10:09.233Z,114.84
2023-05-17T03:11:09.245Z,112.30
2023-05-17T03:12:09.262Z,112.41
2023-05-17T03:13:08.322Z,111.18
2023-05-17T03:14:09.352Z,113.32
2023-05-17T03:15:09.372Z,114.99
2023-05-17T03:16:08.368Z,114.04
2023-05-17T03:17:09.404Z,113.49
2023-05-17T03:18:09.621Z,114.63
2023-05-17T03:19:09.577Z,113.52
2023-05-17T03:20:08.523Z,115.31
2023-05-17T03:21:08.526Z,113.57
2023-05-17T03:22:09.694Z,112.42
2023-05-17T03:23:09.561Z,113.59
2023-05-17T03:24:08.605Z,112.49
2023-05-17T03:25:09.626Z,112.55
2023-05-17T03:26:09.643Z,111.58
2023-05-17T03:27:09.688Z,111.60
2023-05-17T03:28:08.689Z,111.67
2023-05-17T03:29:09.720Z,112.10
2023-05-17T03:30:09.753Z,111.80
2023-05-17T03:31:09.780Z,111.94
2023-05-17T03:32:09.799Z,110.50
2023-05-17T03:33:08.880Z,111.56
2023-05-17T03:34:09.918Z,111.23
2023-05-17T03:35:09.877Z,113.72
2023-05-17T03:36:09.892Z,112.40
2023-05-17T03:37:09.888Z,110.82
2023-05-17T03:38:09.925Z,110.92
2023-05-17T03:39:09.941Z,111.45
2023-05-17T03:40:09.954Z,112.11
2023-05-17T03:41:09.953Z,113.30
2023-05-17T03:42:09.971Z,110.94
2023-05-17T03:43:10.013Z,109.51
2023-05-17T03:44:10.009Z,109.99
2023-05-17T03:45:10.045Z,111.24
2023-05-17T03:46:10.023Z,110.32
2023-05-17T03:47:10.054Z,111.23
2023-05-17T03:48:09.047Z,110.29
2023-05-17T03:49:09.152Z,112.08
2023-05-17T03:50:10.110Z,109.65
2023-05-17T03:51:09.106Z,110.21
2023-05-17T03:52:10.149Z,111.15
2023-05-17T03:53:09.181Z,111.47
2023-05-17T03:54:09.272Z,109.59
2023-05-17T03:55:10.202Z,109.77
2023-05-17T03:56:10.215Z,109.46
2023-05-17T03:57:10.264Z,109.90
2023-05-17T03:58:10.237Z,108.84
2023-05-17T03:59:10.264Z,109.07
2023-05-17T04:00:10.277Z,109.80
2023-05-17T04:01:09.298Z,111.03
2023-05-17T04:02:09.319Z,108.04
2023-05-17T04:03:10.339Z,108.22
2023-05-17T04:04:10.522Z,110.97
2023-05-17T04:05:10.421Z,107.58
2023-05-17T04:06:10.407Z,109.67
2023-05-17T04:07:09.416Z,106.16
2023-05-17T04:08:09.422Z,107.07
2023-05-17T04:09:10.451Z,110.82
2023-05-17T04:10:10.565Z,109.32
2023-05-17T04:11:09.479Z,107.72
2023-05-17T04:12:09.507Z,109.24
2023-05-17T04:13:09.528Z,107.63
2023-05-17T04:14:10.537Z,107.53
2023-05-17T04:15:10.565Z,106.93
2023-05-17T04:16:09.570Z,105.43
2023-05-17T04:17:09.585Z,106.69
2023-05-17T04:18:09.674Z,106.85
2023-05-17T04:19:10.820Z,104.25
2023-05-17T04:20:10.655Z,105.95
2023-05-17T04:21:10.693Z,104.77
2023-05-17T04:22:09.718Z,106.98
2023-05-17T04:23:11.777Z,106.59
2023-05-17T04:24:10.743Z,104.70
2023-05-17T04:25:10.781Z,107.66
2023-05-17T04:26:09.964Z,103.90
2023-05-17T04:27:09.821Z,104.42
2023-05-17T04:28:09.851Z,103.80
2023-05-17T04:29:10.872Z,104.38
2023-05-17T04:30:10.879Z,103.03
2023-05-17T04:31:10.909Z,101.39
2023-05-17T04:32:09.907Z,103.43
2023-05-17T04:33:13.404Z,103.68
2023-05-17T04:34:09.956Z,103.80
2023-05-17T04:35:10.932Z,103.89
2023-05-17T04:36:10.895Z,103.81
2023-05-17T04:37:10.924Z,102.57
2023-05-17T04:38:09.891Z,105.36
2023-05-17T04:39:09.901Z,104.66
2023-05-17T04:40:10.892Z,104.14
2023-05-17T04:41:10.875Z,103.49
2023-05-17T04:42:09.971Z,103.45
2023-05-17T04:43:10.859Z,100.07
2023-05-17T04:44:10.856Z,102.53
2023-05-17T04:45:09.840Z,100.47
2023-05-17T04:46:10.830Z,100.86
2023-05-17T04:47:09.829Z,101.73
2023-05-17T04:48:09.901Z,101.09
2023-05-17T04:49:09.801Z,102.35
2023-05-17T04:50:12.908Z,99.95
2023-05-17T04:51:10.808Z,104.24
2023-05-17T04:52:09.783Z,105.05
2023-05-17T04:53:10.771Z,101.81
2023-05-17T04:54:10.762Z,101.87
2023-05-17T04:55:10.783Z,100.26
2023-05-17T04:56:10.769Z,102.23
2023-05-17T04:57:10.757Z,102.28
2023-05-17T04:58:10.778Z,100.64
2023-05-17T04:59:10.735Z,96.71
2023-05-17T05:00:09.741Z,97.91
2023-05-17T05:01:10.720Z,100.81
2023-05-17T05:02:10.720Z,98.92
2023-05-17T05:03:10.767Z,97.94
2023-05-17T05:04:10.838Z,97.29
2023-05-17T05:05:10.774Z,97.03
2023-05-17T05:06:10.709Z,103.81
2023-05-17T05:07:09.724Z,110.72
2023-05-17T05:08:10.689Z,106.59
2023-05-17T05:09:10.683Z,106.47
2023-05-17T05:10:09.679Z,104.86
2023-05-17T05:11:10.661Z,98.77
2023-05-17T05:12:09.650Z,101.25
2023-05-17T05:13:11.317Z,99.72
2023-05-17T05:14:10.734Z,100.74
2023-05-17T05:15:09.653Z,100.85
2023-05-17T05:16:10.636Z,103.36
2023-05-17T05:17:10.615Z,102.87
2023-05-17T05:18:10.694Z,104.62
2023-05-17T05:19:09.726Z,94.42
2023-05-17T05:20:10.638Z,52.90
2023-05-17T05:21:09.607Z,24.64
2023-05-17T05:22:10.599Z,17.23
2023-05-17T05:23:10.604Z,22.59
2023-05-17T05:24:10.591Z,66.26
2023-05-17T05:25:10.626Z,37.97
2023-05-17T05:26:09.567Z,24.02
2023-05-17T05:27:10.564Z,25.35
2023-05-17T05:28:09.558Z,25.16
2023-05-17T05:29:10.561Z,38.79
2023-05-17T05:30:10.727Z,93.62
2023-05-17T05:31:10.535Z,120.24
2023-05-17T05:32:10.528Z,118.57
2023-05-17T05:33:09.738Z,116.81
2023-05-17T05:34:10.750Z,122.58
2023-05-17T05:35:10.527Z,124.90
2023-05-17T05:36:10.540Z,123.35
2023-05-17T05:37:09.551Z,133.07
2023-05-17T05:38:09.611Z,135.84
2023-05-17T05:39:09.645Z,142.15
2023-05-17T05:40:09.659Z,139.10
2023-05-17T05:41:09.718Z,139.22
2023-05-17T05:42:09.750Z,146.12
2023-05-17T05:43:10.788Z,145.84
2023-05-17T05:44:10.871Z,142.90
2023-05-17T05:45:10.868Z,141.23
2023-05-17T05:46:11.069Z,140.78
2023-05-17T05:47:10.951Z,152.66
2023-05-17T05:48:11.072Z,153.93
2023-05-17T05:49:11.104Z,150.93
2023-05-17T05:50:11.053Z,157.22
2023-05-17T05:51:11.052Z,161.14
2023-05-17T05:52:11.064Z,169.38
2023-05-17T05:54:10.071Z,172.15
2023-05-17T05:55:10.076Z,173.19
2023-05-17T05:56:11.108Z,172.85
2023-05-17T05:57:11.092Z,172.39
2023-05-17T05:58:10.057Z,174.27
2023-05-17T05:59:10.043Z,178.20
2023-05-17T06:00:11.066Z,175.77
2023-05-17T06:01:11.048Z,178.49
2023-05-17T06:02:11.128Z,178.85
2023-05-17T06:03:10.013Z,177.06
2023-05-17T06:04:09.999Z,181.25
2023-05-17T06:05:10.355Z,185.27
2023-05-17T06:06:11.106Z,189.67
2023-05-17T06:07:10.988Z,196.42
2023-05-17T06:08:10.988Z,202.08
2023-05-17T06:09:10.993Z,202.34
2023-05-17T06:10:10.023Z,205.34
2023-05-17T06:11:09.976Z,208.22
2023-05-17T06:12:10.988Z,208.02
2023-05-17T06:13:09.978Z,208.48
2023-05-17T06:14:10.960Z,212.36
2023-05-17T06:15:10.975Z,212.10
2023-05-17T06:16:09.966Z,213.26
2023-05-17T06:17:09.929Z,215.26
2023-05-17T06:18:10.143Z,219.24
2023-05-17T06:19:10.104Z,220.14
2023-05-17T06:20:09.911Z,220.00
2023-05-17T06:21:10.950Z,220.71
2023-05-17T06:22:10.998Z,223.79
2023-05-17T06:23:11.038Z,227.46
2023-05-17T06:24:11.073Z,227.57
2023-05-17T06:25:11.077Z,230.92
2023-05-17T06:26:11.147Z,231.62
2023-05-17T06:27:10.169Z,231.97
2023-05-17T06:28:11.243Z,237.21
2023-05-17T06:29:11.286Z,237.63
2023-05-17T06:30:11.318Z,239.93
2023-05-17T06:31:10.364Z,241.99
2023-05-17T06:32:11.427Z,242.26
2023-05-17T06:33:10.544Z,241.49
2023-05-17T06:34:11.786Z,244.62
2023-05-17T06:35:11.633Z,245.50
2023-05-17T06:36:11.609Z,247.55
2023-05-17T06:37:11.662Z,249.35
2023-05-17T06:38:11.694Z,246.49
2023-05-17T06:39:12.355Z,249.39
2023-05-17T06:41:10.780Z,249.41
2023-05-17T06:42:11.768Z,249.62
2023-05-17T06:43:11.782Z,250.05
2023-05-17T06:44:11.783Z,253.56
2023-05-17T06:45:11.787Z,257.28
2023-05-17T06:46:11.742Z,249.05
2023-05-17T06:47:11.736Z,249.10
2023-05-17T06:48:11.844Z,247.85
2023-05-17T06:49:13.838Z,249.51
2023-05-17T06:50:11.851Z,246.26
2023-05-17T06:51:11.882Z,246.38
2023-05-17T06:52:11.701Z,243.72
2023-05-17T06:53:12.727Z,242.12
2023-05-17T06:54:10.692Z,241.53
2023-05-17T06:55:11.692Z,239.68
2023-05-17T06:56:11.902Z,236.22
2023-05-17T06:57:11.686Z,238.02
2023-05-17T06:58:11.684Z,238.41
2023-05-17T06:59:11.686Z,236.61
2023-05-17T07:00:11.666Z,231.78
2023-05-17T07:01:10.690Z,216.74
2023-05-17T07:02:10.639Z,213.08
2023-05-17T07:03:11.722Z,211.16
2023-05-17T07:04:10.692Z,206.75
2023-05-17T07:05:11.724Z,207.01
2023-05-17T07:06:11.902Z,205.80
2023-05-17T07:07:10.646Z,202.29
2023-05-17T07:08:10.614Z,202.69
2023-05-17T07:09:11.613Z,202.29
2023-05-17T07:10:11.599Z,200.63
2023-05-17T07:11:11.597Z,199.35
2023-05-17T07:12:10.586Z,197.98
2023-05-17T07:13:10.584Z,195.59
2023-05-17T07:14:10.595Z,195.43
2023-05-17T07:15:11.587Z,193.38
2023-05-17T07:16:11.609Z,192.56
2023-05-17T07:17:11.602Z,190.52
2023-05-17T07:18:10.707Z,189.00
2023-05-17T07:19:10.740Z,188.13
2023-05-17T07:20:11.721Z,185.73
2023-05-17T07:21:11.664Z,182.37
2023-05-17T07:22:11.808Z,182.10
2023-05-17T07:23:10.688Z,180.78
2023-05-17T07:24:11.689Z,178.31
2023-05-17T07:25:10.701Z,178.49
2023-05-17T07:26:10.884Z,177.75
2023-05-17T07:27:11.725Z,177.03
2023-05-17T07:28:11.740Z,175.43
2023-05-17T07:29:11.787Z,174.03
2023-05-17T07:30:11.791Z,171.47
2023-05-17T07:31:10.790Z,170.90
2023-05-17T07:32:11.814Z,171.02
2023-05-17T07:33:11.892Z,170.25
2023-05-17T07:34:10.845Z,168.89
2023-05-17T07:35:10.834Z,168.82
2023-05-17T07:36:11.957Z,168.31
2023-05-17T07:37:11.871Z,167.55
2023-05-17T07:38:11.990Z,165.29
2023-05-17T07:39:11.899Z,164.90
2023-05-17T07:40:10.902Z,162.23
2023-05-17T07:41:12.416Z,163.29
2023-05-17T07:42:11.925Z,161.11
2023-05-17T07:43:11.931Z,158.87
2023-05-17T07:44:10.977Z,158.67
2023-05-17T07:45:11.972Z,157.79
2023-05-17T07:46:12.063Z,156.93
2023-05-17T07:47:12.081Z,156.07
2023-05-17T07:48:13.022Z,165.87
2023-05-17T07:49:12.138Z,175.00
2023-05-17T07:50:12.107Z,162.74
2023-05-17T07:51:11.394Z,165.53
2023-05-17T07:52:12.160Z,162.21
2023-05-17T07:53:12.176Z,163.51
2023-05-17T07:54:12.257Z,166.65
2023-05-17T07:55:12.513Z,167.61
2023-05-17T07:56:11.294Z,167.92
2023-05-17T07:57:12.388Z,167.92
2023-05-17T07:58:11.403Z,169.16
2023-05-17T07:59:12.452Z,172.18
2023-05-17T08:00:12.532Z,172.32
2023-05-17T08:01:13.076Z,173.23
2023-05-17T08:02:12.590Z,174.76
2023-05-17T08:03:13.580Z,175.09
2023-05-17T08:04:11.665Z,177.00
2023-05-17T08:05:12.627Z,178.39
2023-05-17T08:06:11.703Z,178.09
2023-05-17T08:07:11.607Z,176.25
2023-05-17T08:08:11.591Z,178.62
2023-05-17T08:09:12.617Z,181.02
2023-05-17T08:10:12.662Z,181.62
2023-05-17T08:11:12.669Z,183.65
2023-05-17T08:12:11.591Z,183.77
2023-05-17T08:13:12.590Z,186.70
2023-05-17T08:14:11.597Z,187.94
2023-05-17T08:15:11.562Z,187.27
2023-05-17T08:16:14.132Z,187.77
2023-05-17T08:17:12.557Z,187.86
2023-05-17T08:18:12.726Z,188.29
2023-05-17T08:19:12.641Z,188.44
2023-05-17T08:20:11.743Z,189.80
2023-05-17T08:21:12.592Z,191.31
2023-05-17T08:22:11.537Z,192.50
2023-05-17T08:23:11.509Z,191.98
2023-05-17T08:24:12.551Z,193.76
2023-05-17T08:25:11.508Z,191.92
2023-05-17T08:26:13.028Z,196.46
2023-05-17T08:27:12.715Z,197.79
2023-05-17T08:28:11.490Z,200.08
2023-05-17T08:29:12.500Z,201.81
2023-05-17T08:30:17.997Z,202.72
2023-05-17T08:31:12.459Z,202.94
2023-05-17T08:32:12.439Z,203.55
2023-05-17T08:33:11.548Z,204.29
2023-05-17T08:34:11.633Z,205.96
2023-05-17T08:35:12.446Z,206.08
2023-05-17T08:36:12.431Z,207.01
2023-05-17T08:37:12.500Z,207.88
2023-05-17T08:38:11.412Z,211.36
2023-05-17T08:39:12.405Z,209.11
2023-05-17T08:40:11.536Z,211.60
2023-05-17T08:41:12.403Z,210.79
2023-05-17T08:42:12.415Z,211.77
2023-05-17T08:43:11.919Z,212.68
2023-05-17T08:44:12.367Z,212.54
2023-05-17T08:45:11.363Z,206.34
2023-05-17T08:46:12.431Z,186.41
2023-05-17T08:47:12.372Z,127.25
2023-05-17T08:48:11.434Z,98.57
2023-05-17T08:49:12.387Z,66.40
2023-05-17T08:50:12.331Z,58.68
2023-05-17T08:51:11.445Z,36.21
2023-05-17T08:52:12.321Z,25.00
2023-05-17T08:53:11.373Z,25.06
2023-05-17T08:54:12.299Z,24.72
2023-05-17T08:55:11.378Z,23.49
2023-05-17T08:56:11.454Z,23.65
2023-05-17T08:57:12.313Z,24.57
2023-05-17T08:58:11.316Z,24.84
2023-05-17T08:59:12.266Z,25.74
2023-05-17T09:00:12.274Z,26.00
2023-05-17T09:01:11.285Z,26.97
2023-05-17T09:02:11.283Z,24.84
2023-05-17T09:03:11.346Z,29.72
2023-05-17T09:04:12.298Z,30.01
2023-05-17T09:05:11.482Z,28.84
2023-05-17T09:06:12.259Z,25.00
2023-05-17T09:07:11.311Z,26.31
2023-05-17T09:08:12.350Z,24.56
2023-05-17T09:09:12.323Z,25.00
2023-05-17T09:10:12.335Z,25.19
2023-05-17T09:11:11.422Z,25.89
2023-05-17T09:12:12.355Z,25.18
2023-05-17T09:13:12.408Z,25.00
2023-05-17T09:14:11.486Z,28.87
2023-05-17T09:15:11.432Z,27.70
2023-05-17T09:16:12.460Z,25.10
2023-05-17T09:17:12.455Z,25.95
2023-05-17T09:18:11.645Z,26.70
2023-05-17T09:19:12.663Z,25.06
2023-05-17T09:20:12.602Z,28.04
2023-05-17T09:21:12.593Z,25.47
2023-05-17T09:22:12.607Z,28.91
2023-05-17T09:23:11.593Z,34.61
2023-05-17T09:24:12.655Z,34.96
2023-05-17T09:25:11.686Z,33.03
2023-05-17T09:26:11.679Z,29.11
2023-05-17T09:27:12.690Z,25.00
2023-05-17T09:28:11.703Z,28.99
2023-05-17T09:29:11.831Z,26.41
2023-05-17T09:30:12.785Z,27.23
2023-05-17T09:31:12.853Z,28.48
2023-05-17T09:32:11.940Z,25.74
2023-05-17T09:33:13.210Z,27.51
2023-05-17T09:34:12.979Z,26.26
2023-05-17T09:35:12.881Z,25.00
2023-05-17T09:36:12.896Z,27.93
2023-05-17T09:37:11.868Z,28.57
2023-05-17T09:38:12.882Z,25.00
2023-05-17T09:39:13.497Z,26.44
2023-05-17T09:40:11.866Z,25.99
2023-05-17T09:41:12.852Z,25.00
2023-05-17T09:42:11.824Z,27.10
2023-05-17T09:43:12.833Z,28.97
2023-05-17T09:44:12.852Z,27.55
2023-05-17T09:45:12.814Z,26.26
2023-05-17T09:46:12.845Z,28.56
2023-05-17T09:47:13.488Z,29.62
2023-05-17T09:48:11.804Z,33.28
2023-05-17T09:49:12.774Z,37.11
2023-05-17T09:50:12.771Z,47.94
2023-05-17T09:51:11.773Z,68.17
2023-05-17T09:52:12.963Z,85.19
2023-05-17T09:53:12.877Z,107.67
2023-05-17T09:54:12.806Z,111.99
2023-05-17T09:55:12.830Z,132.07
2023-05-17T09:56:12.863Z,150.23
2023-05-17T09:57:11.923Z,155.03
2023-05-17T09:58:12.928Z,156.57
2023-05-17T09:59:13.011Z,160.69
2023-05-17T10:00:12.053Z,166.02
2023-05-17T10:01:13.056Z,170.56
2023-05-17T10:02:13.054Z,173.88
2023-05-17T10:03:13.156Z,175.90
2023-05-17T10:04:13.211Z,173.79
2023-05-17T10:05:13.189Z,177.88
2023-05-17T10:06:16.596Z,174.38
2023-05-17T10:07:13.103Z,174.39
2023-05-17T10:08:12.078Z,172.51
2023-05-17T10:09:12.087Z,171.81
2023-05-17T10:10:12.096Z,173.79
2023-05-17T10:11:13.055Z,165.62
2023-05-17T10:12:13.057Z,163.62
2023-05-17T10:13:12.058Z,165.80
2023-05-17T10:14:12.041Z,164.84
2023-05-17T10:15:13.090Z,166.27
2023-05-17T10:16:12.064Z,164.83
2023-05-17T10:17:13.987Z,163.60
2023-05-17T10:18:13.119Z,158.51
2023-05-17T10:19:13.096Z,157.01
2023-05-17T10:20:13.171Z,153.02
2023-05-17T10:21:12.995Z,154.52
2023-05-17T10:22:22.431Z,154.41
2023-05-17T10:23:13.008Z,149.70
2023-05-17T10:24:13.002Z,153.74
2023-05-17T10:25:12.989Z,151.46
2023-05-17T10:26:12.957Z,150.67
2023-05-17T10:27:13.006Z,149.18
2023-05-17T10:28:11.977Z,148.51
2023-05-17T10:29:12.944Z,147.13
2023-05-17T10:30:11.942Z,147.60
2023-05-17T10:31:12.960Z,144.93
2023-05-17T10:32:12.971Z,145.47
2023-05-17T10:33:13.035Z,144.10
2023-05-17T10:34:12.114Z,145.11
2023-05-17T10:35:12.902Z,143.66
2023-05-17T10:36:12.906Z,143.80
2023-05-17T10:37:12.904Z,140.74
2023-05-17T10:38:11.929Z,143.28
2023-05-17T10:39:11.890Z,147.98
2023-05-17T10:40:11.889Z,153.59
2023-05-17T10:41:12.480Z,154.86
2023-05-17T10:42:15.985Z,157.23
2023-05-17T10:43:12.858Z,157.34
2023-05-17T10:44:11.844Z,159.83
2023-05-17T10:45:12.841Z,160.96
2023-05-17T10:46:11.825Z,159.25
2023-05-17T10:47:12.968Z,177.85
2023-05-17T10:48:12.007Z,185.66
2023-05-17T10:49:11.898Z,186.80
2023-05-17T10:50:12.838Z,187.75
2023-05-17T10:51:11.785Z,190.06
2023-05-17T10:52:12.783Z,192.10
2023-05-17T10:53:11.785Z,192.95
2023-05-17T10:54:12.804Z,192.76
2023-05-17T10:55:12.774Z,195.35
2023-05-17T10:56:12.783Z,195.90
2023-05-17T10:57:11.787Z,196.38
2023-05-17T10:58:12.751Z,197.20
2023-05-17T10:59:12.747Z,197.06
2023-05-17T11:00:12.741Z,196.84
2023-05-17T11:01:13.470Z,197.31
2023-05-17T11:02:12.971Z,196.98
2023-05-17T11:03:12.740Z,195.58
2023-05-17T11:04:12.752Z,196.32
2023-05-17T11:05:12.829Z,196.17
2023-05-17T11:06:22.450Z,195.93
2023-05-17T11:07:12.690Z,196.10
2023-05-17T11:08:12.686Z,196.82
2023-05-17T11:09:11.685Z,197.27
2023-05-17T11:10:12.705Z,198.61
2023-05-17T11:11:12.689Z,201.18
2023-05-17T11:12:11.690Z,200.10
2023-05-17T11:13:12.651Z,201.36
2023-05-17T11:14:12.651Z,199.25
2023-05-17T11:15:12.638Z,199.55
2023-05-17T11:16:11.634Z,199.89
2023-05-17T11:17:12.656Z,200.99
2023-05-17T11:18:26.315Z,198.65
2023-05-17T11:19:12.684Z,198.77
2023-05-17T11:20:27.733Z,198.90
2023-05-17T11:21:12.670Z,198.76
2023-05-17T11:22:12.636Z,198.99
2023-05-17T11:23:11.567Z,198.96
2023-05-17T11:24:11.583Z,198.91
2023-05-17T11:25:12.582Z,200.06
2023-05-17T11:26:16.095Z,198.76
2023-05-17T11:27:11.575Z,198.93
2023-05-17T11:28:12.560Z,199.20
2023-05-17T11:29:11.572Z,198.98
2023-05-17T11:30:12.539Z,198.99
2023-05-17T11:31:12.537Z,199.13
2023-05-17T11:32:13.031Z,201.86
2023-05-17T11:33:29.108Z,201.65
2023-05-17T11:34:12.568Z,201.78
2023-05-17T11:35:12.519Z,201.68
2023-05-17T11:36:12.504Z,198.63
2023-05-17T11:37:12.513Z,197.48
2023-05-17T11:38:11.543Z,198.94
2023-05-17T11:39:12.509Z,201.39
2023-05-17T11:40:11.486Z,201.91
2023-05-17T11:41:19.590Z,203.59
2023-05-17T11:42:12.483Z,203.72
2023-05-17T11:43:12.502Z,203.23
2023-05-17T11:44:12.451Z,203.04
2023-05-17T11:45:11.443Z,201.69
2023-05-17T11:46:12.463Z,203.13
2023-05-17T11:47:11.507Z,203.42
2023-05-17T11:48:12.546Z,202.98
2023-05-17T11:49:20.243Z,202.47
2023-05-17T11:50:12.410Z,202.61
2023-05-17T11:51:11.418Z,203.08
2023-05-17T11:52:11.405Z,203.46
2023-05-17T11:53:12.388Z,203.59
2023-05-17T11:54:12.405Z,205.68
2023-05-17T11:55:11.381Z,206.26
2023-05-17T11:56:11.401Z,205.11
2023-05-17T11:57:11.378Z,205.56
2023-05-17T11:58:11.361Z,205.21
2023-05-17T11:59:12.458Z,206.62
2023-05-17T12:00:12.355Z,207.05
2023-05-17T12:01:12.356Z,206.39
2023-05-17T12:02:12.514Z,206.51
2023-05-17T12:03:12.481Z,206.37
2023-05-17T12:04:12.341Z,207.19
2023-05-17T12:05:12.293Z,206.79
2023-05-17T12:06:12.362Z,207.86
2023-05-17T12:07:12.297Z,206.68
2023-05-17T12:08:11.283Z,206.31
2023-05-17T12:09:11.390Z,206.08
2023-05-17T12:10:11.373Z,207.27
2023-05-17T12:11:12.269Z,207.03
2023-05-17T12:12:12.278Z,207.55
2023-05-17T12:13:12.251Z,205.62
2023-05-17T12:14:12.233Z,205.91
2023-05-17T12:15:12.236Z,207.50
2023-05-17T12:16:12.396Z,207.00
2023-05-17T12:17:11.229Z,205.87
2023-05-17T12:18:11.303Z,207.18
2023-05-17T12:19:11.344Z,207.05
2023-05-17T12:20:11.304Z,207.69
2023-05-17T12:21:12.200Z,209.51
2023-05-17T12:22:12.303Z,212.06
2023-05-17T12:23:12.302Z,215.70
2023-05-17T12:24:12.389Z,214.78
2023-05-17T12:25:11.382Z,217.48
2023-05-17T12:26:12.473Z,216.70
2023-05-17T12:27:12.481Z,216.77
2023-05-17T12:28:12.521Z,217.77
2023-05-17T12:29:12.543Z,216.15
2023-05-17T12:30:11.672Z,218.16
2023-05-17T12:31:12.694Z,218.77
2023-05-17T12:32:12.705Z,219.00
2023-05-17T12:33:12.796Z,220.03